createdAt,value
2018-09-04T00:00:17.184Z,432.20
2018-09-04T00:01:17.802Z,347.70
2018-09-04T00:02:16.743Z,416.00
2018-09-04T00:03:16.338Z,283.10
2018-09-04T00:04:16.941Z,349.60
2018-09-04T00:05:18.421Z,336.90
2018-09-04T00:06:17.365Z,315.10
2018-09-04T00:07:16.666Z,291.80
2018-09-04T00:08:16.652Z,339.50
2018-09-04T00:09:17.631Z,327.70
2018-09-04T00:10:16.708Z,305.30
2018-09-04T00:11:16.943Z,303.90
2018-09-04T00:12:17.398Z,323.10
2018-09-04T00:14:16.977Z,355.10
2018-09-04T00:15:17.507Z,427.70
2018-09-04T00:19:17.600Z,375.60
2018-09-04T00:20:17.301Z,282.40
2018-09-04T00:21:17.371Z,270.90
2018-09-04T00:22:17.940Z,314.10
2018-09-04T00:23:17.136Z,258.60
2018-09-04T00:24:17.771Z,359.40
2018-09-04T00:25:17.306Z,344.80
2018-09-04T00:26:17.573Z,348.00
2018-09-04T00:28:17.418Z,369.40
2018-09-04T00:29:18.100Z,258.80
2018-09-04T00:30:17.688Z,300.10
2018-09-04T00:31:17.883Z,326.90
2018-09-04T00:32:17.867Z,301.20
2018-09-04T00:33:18.947Z,207.10
2018-09-04T00:34:18.209Z,463.90
2018-09-04T00:35:17.959Z,286.80
2018-09-04T00:36:17.752Z,292.90
2018-09-04T00:37:17.842Z,208.20
2018-09-04T00:39:18.326Z,222.10
2018-09-04T00:40:17.849Z,328.10
2018-09-04T00:41:18.758Z,283.00
2018-09-04T00:43:18.101Z,221.30
2018-09-04T00:44:18.094Z,366.60
2018-09-04T00:45:21.230Z,339.40
2018-09-04T00:47:18.240Z,217.80
2018-09-04T00:48:18.667Z,343.70
2018-09-04T00:49:18.387Z,247.30
2018-09-04T00:50:18.661Z,239.10
2018-09-04T00:51:18.975Z,242.00
2018-09-04T00:52:18.730Z,236.10
2018-09-04T00:53:18.791Z,243.40
2018-09-04T00:54:18.379Z,246.90
2018-09-04T00:55:18.569Z,264.10
2018-09-04T00:56:18.615Z,261.90
2018-09-04T00:57:19.229Z,277.00
2018-09-04T00:58:19.589Z,244.50
2018-09-04T00:59:18.735Z,253.20
2018-09-04T01:00:19.760Z,335.60
2018-09-04T01:02:19.245Z,257.50
2018-09-04T01:03:21.539Z,310.00
2018-09-04T01:04:19.282Z,367.20
2018-09-04T01:05:19.134Z,243.10
2018-09-04T01:06:19.212Z,312.50
2018-09-04T01:07:19.627Z,413.30
2018-09-04T01:08:19.730Z,262.40
2018-09-04T01:09:22.454Z,254.50
2018-09-04T01:10:20.882Z,269.30
2018-09-04T01:11:19.211Z,389.40
2018-09-04T01:12:19.674Z,290.20
2018-09-04T01:13:19.311Z,317.70
2018-09-04T01:14:19.227Z,258.00
2018-09-04T01:15:19.669Z,283.50
2018-09-04T01:16:19.917Z,298.20
2018-09-04T01:17:19.454Z,271.60
2018-09-04T01:18:19.369Z,382.70
2018-09-04T01:19:18.981Z,258.70
2018-09-04T01:20:19.871Z,338.40
2018-09-04T01:21:19.524Z,340.40
2018-09-04T01:22:19.651Z,369.60
2018-09-04T01:23:20.100Z,337.80
2018-09-04T01:24:19.907Z,303.40
2018-09-04T01:25:19.978Z,268.30
2018-09-04T01:26:20.087Z,304.20
2018-09-04T01:28:19.913Z,310.00
2018-09-04T01:29:19.894Z,334.70
2018-09-04T01:30:19.992Z,247.00
2018-09-04T01:31:20.020Z,378.60
2018-09-04T01:32:20.044Z,412.50
2018-09-04T01:33:20.356Z,259.30
2018-09-04T01:34:19.804Z,258.90
2018-09-04T01:35:20.172Z,308.70
2018-09-04T01:36:20.437Z,344.80
2018-09-04T01:37:20.272Z,324.40
2018-09-04T01:38:21.754Z,308.80
2018-09-04T01:39:21.807Z,302.60
2018-09-04T01:40:20.566Z,243.20
2018-09-04T01:41:19.876Z,380.80
2018-09-04T01:42:19.932Z,308.60
2018-09-04T01:43:19.965Z,278.30
2018-09-04T01:44:19.997Z,507.50
2018-09-04T01:45:20.041Z,275.10
2018-09-04T01:46:20.321Z,291.10
2018-09-04T01:47:20.636Z,285.50
2018-09-04T01:48:20.647Z,314.00
2018-09-04T01:49:20.693Z,345.40
2018-09-04T01:50:20.784Z,329.80
2018-09-04T01:51:20.253Z,431.20
2018-09-04T01:52:20.867Z,386.80
2018-09-04T01:53:20.348Z,327.50
2018-09-04T01:54:21.352Z,348.40
2018-09-04T01:55:21.047Z,430.40
2018-09-04T01:56:21.464Z,311.10
2018-09-04T01:57:20.822Z,307.20
2018-09-04T01:58:20.559Z,325.90
2018-09-04T01:59:20.599Z,375.50
2018-09-04T02:00:21.101Z,325.70
2018-09-04T02:01:20.730Z,316.50
2018-09-04T02:02:20.738Z,375.40
2018-09-04T02:03:21.176Z,294.40
2018-09-04T02:04:20.792Z,347.50
2018-09-04T02:05:21.441Z,373.70
2018-09-04T02:06:20.970Z,293.20
2018-09-04T02:07:21.452Z,349.00
2018-09-04T02:08:21.058Z,388.50
2018-09-04T02:09:21.550Z,383.90
2018-09-04T02:10:21.048Z,285.30
2018-09-04T02:11:21.186Z,300.30
2018-09-04T02:12:21.120Z,503.80
2018-09-04T02:13:21.173Z,413.10
2018-09-04T02:14:21.561Z,306.70
2018-09-04T02:15:21.249Z,306.60
2018-09-04T02:16:21.290Z,366.30
2018-09-04T02:17:21.340Z,317.10
2018-09-04T02:18:21.409Z,303.50
2018-09-04T02:19:21.702Z,303.00
2018-09-04T02:20:21.853Z,401.60
2018-09-04T02:21:21.488Z,324.30
2018-09-04T02:22:21.541Z,299.30
2018-09-04T02:23:21.638Z,374.50
2018-09-04T02:24:21.634Z,327.60
2018-09-04T02:25:21.711Z,318.10
2018-09-04T02:26:21.684Z,308.00
2018-09-04T02:27:22.076Z,339.60
2018-09-04T02:28:21.866Z,340.60
2018-09-04T02:29:21.824Z,301.00
2018-09-04T02:30:21.898Z,310.00
2018-09-04T02:31:21.943Z,395.20
2018-09-04T02:32:22.007Z,311.20
2018-09-04T02:33:22.260Z,362.90
2018-09-04T02:34:22.063Z,318.10
2018-09-04T02:35:22.073Z,307.30
2018-09-04T02:36:22.131Z,305.20
2018-09-04T02:37:22.192Z,307.20
2018-09-04T02:38:22.182Z,330.90
2018-09-04T02:39:22.228Z,315.80
2018-09-04T02:40:22.259Z,318.50
2018-09-04T02:41:22.295Z,332.40
2018-09-04T02:42:22.380Z,374.10
2018-09-04T02:43:22.973Z,285.40
2018-09-04T02:44:22.467Z,368.90
2018-09-04T02:45:22.456Z,406.70
2018-09-04T02:46:22.495Z,296.20
2018-09-04T02:47:22.539Z,312.50
2018-09-04T02:48:22.581Z,413.20
2018-09-04T02:49:22.598Z,340.40
2018-09-04T02:50:22.915Z,389.70
2018-09-04T02:51:22.711Z,314.20
2018-09-04T02:52:22.731Z,347.10
2018-09-04T02:53:22.795Z,395.60
2018-09-04T02:54:22.806Z,320.20
2018-09-04T02:55:22.855Z,395.20
2018-09-04T02:56:23.279Z,319.50
2018-09-04T02:57:22.927Z,470.30
2018-09-04T02:58:22.995Z,339.50
2018-09-04T02:59:23.036Z,427.10
2018-09-04T03:00:23.069Z,340.40
2018-09-04T03:01:23.091Z,340.70
2018-09-04T03:02:23.147Z,371.00
2018-09-04T03:03:23.189Z,327.90
2018-09-04T03:04:23.220Z,359.70
2018-09-04T03:05:23.274Z,318.20
2018-09-04T03:06:23.291Z,391.50
2018-09-04T03:07:23.643Z,379.20
2018-09-04T03:08:23.382Z,422.80
2018-09-04T03:09:23.401Z,397.70
2018-09-04T03:10:23.465Z,347.10
2018-09-04T03:11:23.493Z,357.00
2018-09-04T03:12:23.541Z,346.40
2018-09-04T03:13:23.894Z,376.70
2018-09-04T03:14:23.660Z,399.70
2018-09-04T03:15:23.667Z,390.40
2018-09-04T03:16:23.714Z,360.30
2018-09-04T03:17:23.743Z,324.20
2018-09-04T03:18:23.825Z,339.60
2018-09-04T03:19:24.063Z,357.20
2018-09-04T03:20:23.867Z,345.10
2018-09-04T03:21:23.886Z,453.90
2018-09-04T03:22:23.958Z,509.60
2018-09-04T03:23:23.962Z,340.20
2018-09-04T03:24:24.067Z,324.70
2018-09-04T03:25:24.062Z,349.40
2018-09-04T03:26:24.101Z,341.70
2018-09-04T03:27:24.142Z,339.90
2018-09-04T03:28:24.155Z,348.50
2018-09-04T03:29:24.471Z,468.00
2018-09-04T03:30:24.256Z,462.40
2018-09-04T03:31:24.325Z,389.10
2018-09-04T03:32:24.344Z,347.20
2018-09-04T03:33:24.387Z,351.90
2018-09-04T03:34:24.409Z,409.90
2018-09-04T03:35:24.477Z,395.80
2018-09-04T03:36:24.833Z,315.30
2018-09-04T03:37:24.539Z,432.90
2018-09-04T03:38:24.632Z,349.10
2018-09-04T03:39:24.638Z,360.00
2018-09-04T03:40:24.691Z,285.00
2018-09-04T03:41:24.705Z,383.10
2018-09-04T03:42:25.100Z,350.00
2018-09-04T03:43:24.801Z,350.20
2018-09-04T03:44:24.908Z,459.60
2018-09-04T03:45:24.860Z,402.00
2018-09-04T03:46:24.890Z,334.00
2018-09-04T03:47:24.990Z,404.10
2018-09-04T03:48:24.981Z,309.70
2018-09-04T03:49:25.002Z,331.40
2018-09-04T03:50:25.071Z,398.30
2018-09-04T03:51:25.146Z,335.00
2018-09-04T03:52:25.237Z,351.70
2018-09-04T03:53:25.468Z,350.60
2018-09-04T03:54:25.230Z,318.60
2018-09-04T03:55:25.246Z,313.90
2018-09-04T03:56:25.310Z,374.40
2018-09-04T03:57:25.338Z,411.70
2018-09-04T03:58:25.430Z,321.80
2018-09-04T03:59:25.686Z,356.30
2018-09-04T04:00:25.453Z,338.00
2018-09-04T04:01:25.581Z,360.40
2018-09-04T04:02:25.538Z,312.50
2018-09-04T04:03:25.581Z,477.50
2018-09-04T04:04:25.692Z,282.20
2018-09-04T04:05:25.962Z,285.20
2018-09-04T04:06:25.759Z,352.20
2018-09-04T04:07:25.749Z,276.00
2018-09-04T04:08:25.797Z,351.40
2018-09-04T04:09:25.844Z,322.40
2018-09-04T04:10:25.876Z,357.50
2018-09-04T04:11:26.203Z,407.00
2018-09-04T04:12:25.929Z,328.40
2018-09-04T04:13:25.999Z,297.20
2018-09-04T04:14:26.067Z,301.20
2018-09-04T04:15:26.076Z,311.40
2018-09-04T04:16:26.096Z,366.80
2018-09-04T04:17:26.145Z,403.90
2018-09-04T04:18:26.196Z,408.90
2018-09-04T04:19:26.232Z,415.60
2018-09-04T04:20:26.283Z,324.10
2018-09-04T04:21:26.353Z,304.80
2018-09-04T04:22:26.349Z,471.40
2018-09-04T04:23:26.390Z,416.10
2018-09-04T04:24:26.749Z,333.80
2018-09-04T04:25:26.511Z,335.50
2018-09-04T04:26:26.532Z,352.40
2018-09-04T04:27:26.567Z,361.00
2018-09-04T04:28:26.585Z,337.50
2018-09-04T04:29:26.856Z,468.40
2018-09-04T04:30:26.709Z,415.70
2018-09-04T04:31:26.703Z,314.20
2018-09-04T04:32:26.736Z,349.70
2018-09-04T04:33:26.822Z,475.70
2018-09-04T04:34:26.816Z,386.30
2018-09-04T04:35:27.175Z,326.70
2018-09-04T04:36:26.958Z,366.00
2018-09-04T04:37:26.945Z,378.70
2018-09-04T04:38:26.991Z,339.00
2018-09-04T04:39:27.015Z,432.20
2018-09-04T04:40:27.365Z,405.10
2018-09-04T04:41:27.114Z,392.90
2018-09-04T04:42:27.163Z,418.10
2018-09-04T04:43:27.199Z,381.70
2018-09-04T04:44:27.213Z,365.20
2018-09-04T04:45:27.301Z,550.90
2018-09-04T04:46:27.321Z,404.10
2018-09-04T04:47:27.604Z,452.00
2018-09-04T04:48:27.370Z,380.80
2018-09-04T04:49:27.415Z,357.40
2018-09-04T04:50:27.514Z,570.00
2018-09-04T04:51:27.516Z,407.30
2018-09-04T04:52:27.836Z,392.40
2018-09-04T04:53:27.580Z,428.50
2018-09-04T04:54:27.637Z,354.90
2018-09-04T04:55:27.677Z,408.30
2018-09-04T04:56:27.717Z,506.90
2018-09-04T04:57:27.756Z,393.20
2018-09-04T04:58:27.795Z,427.10
2018-09-04T04:59:27.825Z,493.40
2018-09-04T05:00:27.969Z,391.20
2018-09-04T05:01:27.911Z,495.90
2018-09-04T05:02:28.246Z,368.80
2018-09-04T05:03:27.991Z,386.30
2018-09-04T05:04:28.019Z,402.60
2018-09-04T05:05:28.059Z,489.20
2018-09-04T05:06:28.097Z,572.00
2018-09-04T05:07:28.168Z,430.00
2018-09-04T05:08:28.188Z,398.30
2018-09-04T05:09:28.213Z,409.40
2018-09-04T05:10:28.259Z,371.80
2018-09-04T05:11:28.420Z,369.80
2018-09-04T05:12:28.363Z,592.10
2018-09-04T05:13:28.709Z,457.10
2018-09-04T05:14:28.482Z,322.00
2018-09-04T05:15:28.475Z,442.30
2018-09-04T05:16:28.504Z,460.10
2018-09-04T05:17:28.550Z,312.60
2018-09-04T05:18:28.872Z,344.50
2018-09-04T05:19:28.626Z,367.40
2018-09-04T05:20:28.692Z,316.00
2018-09-04T05:21:28.696Z,464.70
2018-09-04T05:22:28.811Z,510.10
2018-09-04T05:23:28.775Z,373.40
2018-09-04T05:24:28.821Z,410.50
2018-09-04T05:25:29.142Z,379.70
2018-09-04T05:26:28.885Z,374.00
2018-09-04T05:27:28.940Z,495.10
2018-09-04T05:28:29.032Z,451.40
2018-09-04T05:29:29.047Z,371.10
2018-09-04T05:30:29.058Z,422.60
2018-09-04T05:31:29.458Z,384.70
2018-09-04T05:32:29.135Z,458.90
2018-09-04T05:33:29.172Z,404.00
2018-09-04T05:34:29.212Z,494.80
2018-09-04T05:35:29.308Z,467.50
2018-09-04T05:36:29.278Z,340.20
2018-09-04T05:37:29.577Z,587.10
2018-09-04T05:38:29.378Z,405.70
2018-09-04T05:39:29.435Z,375.90
2018-09-04T05:40:29.447Z,366.80
2018-09-04T05:41:29.520Z,434.60
2018-09-04T05:42:29.549Z,421.10
2018-09-04T05:43:29.831Z,432.80
2018-09-04T05:44:29.611Z,469.30
2018-09-04T05:45:29.651Z,490.80
2018-09-04T05:46:29.705Z,342.70
2018-09-04T05:47:29.747Z,425.10
2018-09-04T05:48:29.796Z,402.50
2018-09-04T05:49:30.124Z,309.40
2018-09-04T05:50:29.845Z,345.30
2018-09-04T05:51:29.896Z,378.60
2018-09-04T05:52:29.929Z,324.80
2018-09-04T05:53:29.989Z,377.90
2018-09-04T05:54:30.313Z,407.90
2018-09-04T05:55:30.044Z,452.10
2018-09-04T05:56:30.090Z,295.00
2018-09-04T05:57:30.142Z,340.70
2018-09-04T05:58:30.193Z,340.80
2018-09-04T05:59:30.204Z,312.50
2018-09-04T06:00:30.508Z,276.00
2018-09-04T06:01:30.297Z,302.60
2018-09-04T06:02:30.331Z,310.30
2018-09-04T06:03:30.358Z,319.40
2018-09-04T06:04:30.410Z,414.30
2018-09-04T06:05:30.716Z,391.80
2018-09-04T06:06:30.484Z,327.90
2018-09-04T06:07:30.532Z,375.10
2018-09-04T06:08:30.582Z,290.70
2018-09-04T06:09:30.599Z,356.30
2018-09-04T06:10:30.649Z,399.20
2018-09-04T06:11:30.707Z,306.10
2018-09-04T06:12:30.721Z,325.60
2018-09-04T06:13:30.780Z,309.90
2018-09-04T06:14:30.802Z,294.50
2018-09-04T06:15:31.135Z,354.20
2018-09-04T06:16:30.928Z,310.80
2018-09-04T06:17:30.989Z,344.00
2018-09-04T06:18:30.970Z,322.60
2018-09-04T06:19:31.009Z,305.90
2018-09-04T06:20:31.095Z,365.10
2018-09-04T06:21:31.400Z,314.30
2018-09-04T06:22:31.148Z,327.30
2018-09-04T06:23:31.228Z,299.30
2018-09-04T06:24:31.218Z,318.70
2018-09-04T06:25:31.255Z,321.50
2018-09-04T06:26:31.303Z,299.80
2018-09-04T06:27:31.648Z,368.60
2018-09-04T06:28:31.419Z,313.50
2018-09-04T06:29:31.481Z,297.30
2018-09-04T06:30:31.507Z,314.90
2018-09-04T06:31:31.504Z,341.70
2018-09-04T06:32:31.797Z,318.30
2018-09-04T06:33:31.572Z,362.60
2018-09-04T06:34:31.642Z,306.60
2018-09-04T06:35:31.674Z,321.40
2018-09-04T06:36:31.720Z,332.40
2018-09-04T06:37:31.732Z,320.40
2018-09-04T06:38:31.798Z,301.00
2018-09-04T06:39:31.815Z,385.40
2018-09-04T06:40:31.844Z,384.30
2018-09-04T06:41:31.903Z,334.70
2018-09-04T06:42:32.244Z,303.60
2018-09-04T06:43:32.326Z,351.10
2018-09-04T06:44:32.008Z,383.00
2018-09-04T06:45:32.045Z,558.60
2018-09-04T06:46:32.200Z,335.00
2018-09-04T06:47:32.169Z,309.20
2018-09-04T06:48:32.188Z,320.60
2018-09-04T06:49:32.214Z,372.80
2018-09-04T06:50:32.296Z,369.10
2018-09-04T06:51:32.288Z,345.20
2018-09-04T06:52:32.342Z,324.20
2018-09-04T06:53:32.378Z,290.70
2018-09-04T06:54:32.747Z,300.50
2018-09-04T06:55:32.471Z,408.40
2018-09-04T06:56:32.504Z,342.40
2018-09-04T06:57:32.530Z,305.70
2018-09-04T06:58:32.612Z,286.60
2018-09-04T06:59:32.613Z,448.20
2018-09-04T07:00:32.679Z,336.60
2018-09-04T07:01:32.945Z,298.00
2018-09-04T07:02:32.713Z,344.00
2018-09-04T07:03:32.820Z,380.30
2018-09-04T07:04:32.833Z,368.30
2018-09-04T07:05:32.845Z,367.70
2018-09-04T07:06:33.213Z,321.00
2018-09-04T07:07:32.919Z,345.70
2018-09-04T07:08:32.969Z,339.60
2018-09-04T07:09:32.999Z,387.00
2018-09-04T07:10:33.045Z,401.90
2018-09-04T07:11:33.085Z,339.20
2018-09-04T07:12:33.421Z,374.00
2018-09-04T07:13:33.187Z,316.80
2018-09-04T07:14:33.224Z,285.60
2018-09-04T07:15:33.245Z,328.40
2018-09-04T07:16:33.284Z,340.70
2018-09-04T07:17:33.316Z,284.70
2018-09-04T07:18:33.690Z,384.40
2018-09-04T07:19:33.416Z,312.70
2018-09-04T07:20:33.453Z,298.50
2018-09-04T07:21:33.505Z,323.80
2018-09-04T07:22:33.533Z,393.60
2018-09-04T07:23:33.579Z,410.70
2018-09-04T07:24:33.909Z,461.20
2018-09-04T07:25:33.659Z,426.90
2018-09-04T07:26:33.739Z,396.70
2018-09-04T07:27:33.724Z,313.70
2018-09-04T07:28:33.785Z,387.10
2018-09-04T07:29:33.835Z,434.10
2018-09-04T07:30:34.106Z,286.80
2018-09-04T07:31:33.912Z,321.40
2018-09-04T07:32:33.934Z,321.90
2018-09-04T07:33:33.974Z,350.70
2018-09-04T07:34:34.009Z,374.00
2018-09-04T07:35:34.054Z,334.60
2018-09-04T07:36:34.447Z,403.10
2018-09-04T07:37:34.140Z,345.20
2018-09-04T07:38:34.162Z,314.20
2018-09-04T07:39:34.226Z,325.70
2018-09-04T07:40:34.267Z,312.30
2018-09-04T07:41:34.346Z,327.80
2018-09-04T07:42:34.618Z,327.10
2018-09-04T07:43:34.355Z,328.00
2018-09-04T07:44:34.432Z,367.20
2018-09-04T07:45:34.457Z,357.60
2018-09-04T07:46:34.473Z,406.10
2018-09-04T07:47:34.528Z,316.00
2018-09-04T07:48:34.800Z,360.90
2018-09-04T07:49:34.599Z,315.20
2018-09-04T07:50:34.635Z,327.10
2018-09-04T07:51:34.678Z,313.40
2018-09-04T07:52:34.736Z,410.50
2018-09-04T07:53:34.809Z,338.80
2018-09-04T07:54:35.112Z,325.60
2018-09-04T07:55:34.849Z,302.00
2018-09-04T07:56:34.894Z,363.90
2018-09-04T07:57:34.916Z,489.40
2018-09-04T07:58:34.977Z,353.50
2018-09-04T07:59:35.016Z,346.10
2018-09-04T08:00:35.369Z,331.80
2018-09-04T08:01:35.101Z,347.40
2018-09-04T08:02:35.135Z,334.40
2018-09-04T08:03:35.175Z,352.40
2018-09-04T08:04:35.219Z,344.10
2018-09-04T08:05:35.254Z,444.40
2018-09-04T08:06:35.613Z,310.80
2018-09-04T08:07:35.325Z,403.60
2018-09-04T08:08:35.404Z,330.60
2018-09-04T08:09:35.416Z,364.50
2018-09-04T08:10:35.450Z,331.60
2018-09-04T08:11:35.493Z,343.30
2018-09-04T08:12:35.771Z,327.00
2018-09-04T08:13:35.678Z,328.00
2018-09-04T08:14:35.628Z,342.00
2018-09-04T08:15:35.697Z,355.90
2018-09-04T08:16:35.688Z,329.20
2018-09-04T08:17:35.772Z,331.40
2018-09-04T08:18:36.003Z,354.10
2018-09-04T08:19:35.805Z,332.00
2018-09-04T08:20:35.961Z,352.80
2018-09-04T08:21:35.927Z,328.50
2018-09-04T08:22:35.948Z,351.30
2018-09-04T08:23:35.961Z,343.80
2018-09-04T08:24:36.022Z,362.60
2018-09-04T08:25:36.351Z,358.20
2018-09-04T08:26:36.096Z,373.60
2018-09-04T08:27:36.126Z,352.40
2018-09-04T08:28:36.158Z,360.70
2018-09-04T08:29:36.225Z,339.10
2018-09-04T08:30:36.558Z,340.80
2018-09-04T08:31:36.327Z,341.50
2018-09-04T08:32:36.324Z,367.90
2018-09-04T08:33:36.379Z,311.50
2018-09-04T08:34:36.397Z,319.00
2018-09-04T08:35:36.455Z,351.60
2018-09-04T08:36:36.811Z,355.90
2018-09-04T08:37:36.529Z,304.20
2018-09-04T08:38:36.589Z,393.90
2018-09-04T08:39:36.614Z,308.20
2018-09-04T08:40:36.663Z,324.60
2018-09-04T08:41:36.691Z,342.30
2018-09-04T08:42:37.016Z,318.60
2018-09-04T08:43:36.768Z,316.10
2018-09-04T08:44:36.795Z,339.00
2018-09-04T08:45:36.847Z,372.40
2018-09-04T08:46:36.920Z,317.90
2018-09-04T08:47:36.917Z,333.00
2018-09-04T08:48:36.968Z,323.10
2018-09-04T08:49:36.996Z,338.10
2018-09-04T08:50:37.118Z,335.60
2018-09-04T08:51:37.098Z,335.60
2018-09-04T08:52:37.444Z,325.60
2018-09-04T08:53:37.271Z,318.10
2018-09-04T08:54:37.211Z,319.70
2018-09-04T08:55:37.254Z,333.70
2018-09-04T08:56:37.346Z,383.60
2018-09-04T08:57:37.312Z,327.40
2018-09-04T08:58:37.510Z,337.70
2018-09-04T08:59:37.414Z,350.30
2018-09-04T09:00:37.499Z,338.60
2018-09-04T09:01:37.505Z,321.70
2018-09-04T09:02:37.531Z,318.60
2018-09-04T09:03:37.847Z,333.70
2018-09-04T09:04:37.601Z,314.20
2018-09-04T09:05:37.720Z,319.40
2018-09-04T09:06:37.669Z,298.40
2018-09-04T09:07:37.736Z,339.30
2018-09-04T09:08:37.788Z,331.90
2018-09-04T09:09:37.861Z,360.10
2018-09-04T09:10:38.159Z,314.10
2018-09-04T09:11:37.895Z,298.40
2018-09-04T09:12:37.952Z,303.40
2018-09-04T09:13:37.962Z,306.60
2018-09-04T09:14:38.005Z,273.10
2018-09-04T09:15:38.362Z,364.30
2018-09-04T09:16:38.101Z,292.80
2018-09-04T09:17:38.132Z,289.40
2018-09-04T09:18:38.215Z,285.70
2018-09-04T09:19:38.223Z,305.50
2018-09-04T09:20:38.256Z,291.40
2018-09-04T09:21:38.271Z,324.80
2018-09-04T09:22:38.365Z,311.60
2018-09-04T09:23:38.355Z,363.70
2018-09-04T09:24:38.430Z,308.20
2018-09-04T09:25:38.793Z,327.50
2018-09-04T09:26:38.497Z,301.50
2018-09-04T09:27:38.550Z,325.10
2018-09-04T09:28:38.590Z,347.90
2018-09-04T09:29:38.625Z,313.80
2018-09-04T09:30:38.635Z,328.80
2018-09-04T09:31:38.695Z,336.40
2018-09-04T09:32:39.080Z,364.80
2018-09-04T09:33:38.820Z,322.20
2018-09-04T09:34:38.827Z,385.50
2018-09-04T09:35:38.849Z,348.80
2018-09-04T09:36:38.979Z,352.60
2018-09-04T09:37:38.920Z,328.10
2018-09-04T09:38:39.019Z,360.20
2018-09-04T09:39:39.008Z,339.90
2018-09-04T09:40:39.077Z,332.70
2018-09-04T09:41:39.103Z,331.90
2018-09-04T09:42:39.145Z,335.40
2018-09-04T09:43:39.478Z,351.90
2018-09-04T09:44:39.223Z,335.20
2018-09-04T09:45:39.272Z,354.90
2018-09-04T09:46:39.296Z,332.40
2018-09-04T09:47:39.341Z,344.10
2018-09-04T09:48:39.395Z,347.80
2018-09-04T09:49:39.412Z,349.70
2018-09-04T09:50:39.499Z,376.00
2018-09-04T09:51:39.537Z,360.60
2018-09-04T09:52:39.654Z,353.60
2018-09-04T09:53:39.734Z,376.30
2018-09-04T09:54:39.614Z,333.10
2018-09-04T09:55:39.695Z,336.40
2018-09-04T09:56:39.710Z,351.90
2018-09-04T09:57:39.714Z,387.60
2018-09-04T09:58:39.821Z,302.70
2018-09-04T09:59:39.949Z,321.30
2018-09-04T10:00:39.850Z,333.10
2018-09-04T10:01:39.901Z,327.90
2018-09-04T10:02:39.943Z,344.90
2018-09-04T10:03:39.967Z,294.40
2018-09-04T10:04:40.256Z,318.30
2018-09-04T10:05:40.302Z,286.40
2018-09-04T10:06:40.112Z,328.70
2018-09-04T10:07:40.137Z,355.60
2018-09-04T10:08:40.195Z,308.30
2018-09-04T10:09:40.240Z,325.70
2018-09-04T10:10:40.348Z,347.50
2018-09-04T10:11:40.314Z,331.60
2018-09-04T10:12:40.375Z,328.40
2018-09-04T10:13:40.379Z,319.70
2018-09-04T10:14:40.426Z,291.90
2018-09-04T10:15:40.742Z,288.10
2018-09-04T10:16:40.548Z,274.80
2018-09-04T10:17:40.531Z,264.90
2018-09-04T10:18:40.573Z,207.00
2018-09-04T10:19:40.610Z,197.70
2018-09-04T10:20:40.687Z,181.40
2018-09-04T10:21:40.734Z,151.40
2018-09-04T10:22:40.757Z,139.90
2018-09-04T10:23:40.804Z,161.70
2018-09-04T10:24:40.855Z,126.90
2018-09-04T10:25:41.139Z,155.70
2018-09-04T10:26:40.929Z,133.20
2018-09-04T10:27:40.958Z,157.00
2018-09-04T10:28:41.041Z,121.60
2018-09-04T10:29:41.034Z,134.10
2018-09-04T10:30:41.070Z,117.30
2018-09-04T10:31:41.425Z,168.00
2018-09-04T10:32:41.168Z,146.70
2018-09-04T10:33:41.223Z,128.80
2018-09-04T10:34:41.269Z,210.20
2018-09-04T10:35:41.367Z,175.10
2018-09-04T10:36:41.330Z,155.80
2018-09-04T10:37:41.363Z,188.80
2018-09-04T10:38:41.470Z,174.20
2018-09-04T10:39:41.463Z,191.00
2018-09-04T10:40:41.576Z,216.90
2018-09-04T10:41:41.534Z,199.50
2018-09-04T10:42:41.615Z,172.40
2018-09-04T10:43:41.669Z,150.60
2018-09-04T10:44:41.669Z,174.10
2018-09-04T10:45:41.739Z,145.10
2018-09-04T10:46:41.806Z,182.40
2018-09-04T10:47:41.785Z,191.50
2018-09-04T10:48:42.194Z,151.30
2018-09-04T10:49:42.184Z,167.50
2018-09-04T10:50:41.909Z,168.50
2018-09-04T10:51:41.972Z,180.70
2018-09-04T10:52:42.038Z,180.80
2018-09-04T10:53:42.045Z,156.60
2018-09-04T10:54:42.076Z,163.50
2018-09-04T10:55:42.184Z,154.10
2018-09-04T10:56:42.398Z,149.00
2018-09-04T10:57:42.275Z,149.70
2018-09-04T10:58:42.248Z,136.80
2018-09-04T10:59:42.286Z,137.60
2018-09-04T11:00:42.338Z,117.20
2018-09-04T11:01:42.378Z,117.80
2018-09-04T11:02:42.720Z,100.90
2018-09-04T11:03:42.455Z,95.30
2018-09-04T11:04:42.504Z,79.70
2018-09-04T11:05:42.577Z,72.20
2018-09-04T11:06:42.592Z,69.00
2018-09-04T11:07:42.622Z,69.90
2018-09-04T11:08:42.673Z,74.60
2018-09-04T11:09:42.785Z,85.90
2018-09-04T11:10:42.759Z,74.60
2018-09-04T11:11:42.788Z,70.50
2018-09-04T11:12:43.127Z,74.00
2018-09-04T11:13:42.890Z,66.70
2018-09-04T11:14:42.942Z,65.50
2018-09-04T11:15:42.989Z,68.90
2018-09-04T11:16:43.024Z,65.20
2018-09-04T11:17:43.118Z,69.40
2018-09-04T11:18:43.392Z,65.80
2018-09-04T11:19:43.144Z,69.40
2018-09-04T11:20:43.185Z,67.60
2018-09-04T11:21:43.239Z,69.80
2018-09-04T11:22:43.256Z,73.60
2018-09-04T11:23:43.400Z,69.20
2018-09-04T11:24:43.359Z,68.40
2018-09-04T11:25:43.414Z,69.30
2018-09-04T11:26:43.424Z,56.00
2018-09-04T11:27:43.478Z,64.20
2018-09-04T11:28:43.539Z,56.70
2018-09-04T11:29:43.563Z,54.00
2018-09-04T11:30:43.639Z,62.50
2018-09-04T11:31:43.667Z,81.80
2018-09-04T11:32:43.711Z,99.70
2018-09-04T11:33:43.739Z,134.90
2018-09-04T11:34:43.798Z,204.00
2018-09-04T11:35:43.833Z,208.70
2018-09-04T11:36:43.852Z,207.20
2018-09-04T11:37:43.906Z,153.00
2018-09-04T11:38:43.960Z,144.70
2018-09-04T11:39:44.017Z,133.20
2018-09-04T11:40:44.219Z,132.70
2018-09-04T11:41:44.077Z,149.20
2018-09-04T11:42:44.448Z,104.10
2018-09-04T11:43:44.159Z,86.60
2018-09-04T11:44:44.224Z,116.00
2018-09-04T11:45:44.292Z,133.80
2018-09-04T11:46:44.384Z,173.40
2018-09-04T11:47:44.362Z,162.40
2018-09-04T11:48:44.720Z,153.60
2018-09-04T11:49:44.441Z,142.50
2018-09-04T11:50:44.475Z,146.90
2018-09-04T11:51:44.516Z,169.50
2018-09-04T11:52:44.569Z,198.50
2018-09-04T11:53:44.615Z,176.70
2018-09-04T11:54:44.660Z,154.70
2018-09-04T11:55:44.713Z,168.80
2018-09-04T11:56:44.756Z,157.80
2018-09-04T11:57:44.802Z,160.60
2018-09-04T11:58:44.827Z,196.00
2018-09-04T11:59:45.037Z,194.10
2018-09-04T12:00:44.975Z,175.10
2018-09-04T12:01:44.980Z,197.30
2018-09-04T12:02:45.030Z,185.20
2018-09-04T12:03:45.062Z,199.90
2018-09-04T12:04:45.082Z,195.70
2018-09-04T12:05:45.445Z,158.70
2018-09-04T12:06:45.285Z,168.10
2018-09-04T12:07:45.233Z,216.60
2018-09-04T12:08:45.283Z,202.80
2018-09-04T12:09:45.306Z,182.20
2018-09-04T12:10:45.382Z,187.80
2018-09-04T12:11:45.435Z,162.10
2018-09-04T12:12:45.574Z,115.90
2018-09-04T12:13:45.528Z,88.70
2018-09-04T12:14:45.554Z,128.70
2018-09-04T12:15:45.599Z,76.50
2018-09-04T12:16:45.637Z,89.90
2018-09-04T12:17:45.991Z,82.50
2018-09-04T12:18:45.780Z,87.80
2018-09-04T12:19:45.775Z,92.20
2018-09-04T12:20:45.891Z,72.20
2018-09-04T12:21:45.862Z,59.00
2018-09-04T12:22:45.929Z,55.50
2018-09-04T12:23:45.962Z,46.70
2018-09-04T12:24:46.038Z,35.50
2018-09-04T12:25:46.064Z,31.10
2018-09-04T12:26:46.146Z,36.70
2018-09-04T12:27:46.185Z,38.30
2018-09-04T12:28:46.212Z,36.30
2018-09-04T12:29:46.551Z,39.80
2018-09-04T12:30:46.295Z,41.00
2018-09-04T12:31:46.339Z,43.70
2018-09-04T12:32:46.399Z,42.60
2018-09-04T12:33:46.502Z,44.50
2018-09-04T12:34:46.455Z,45.80
2018-09-04T12:35:46.856Z,46.90
2018-09-04T12:36:46.596Z,51.30
2018-09-04T12:37:46.626Z,51.70
2018-09-04T12:38:46.665Z,53.80
2018-09-04T12:39:46.708Z,56.20
2018-09-04T12:40:47.060Z,55.50